Bowser, Canada
Current Conditions -  °F | °C
As of 6:00 AM on Thursday 18 Dec 2014 (Local Time) from CYQQ Reporting Station
Overcast Overcast  
Wind Chill: 41°   Ceiling: 1200
Heat Index: 41°   Visibility: 20mi
Dew Point: 41°   Wind: 2mph
Humidity: 100%   Direction: 200°SSW
Pressure: 29.87"   Gusts: NA
Location:  49.43°N, 124.68°W
Report Text: CYQQ 181400Z 20002KT 20SM BKN012 OVC018 05/05 A2987 RMK SF5SC3 SLP116
Loading
Personal Weather Stations






























Interactive Weather Map New forecast layout! Learn more

10-Day Weather Forecast

Advertisements
Track Severe Weather on mobile